createdAt,value
2023-02-22T00:03:18.006Z,1.20
2023-02-22T00:08:30.617Z,1.24
2023-02-22T00:13:33.833Z,1.26
2023-02-22T00:18:37.980Z,1.27
2023-02-22T00:23:49.899Z,1.24
2023-02-22T00:28:54.437Z,1.21
2023-02-22T00:33:57.430Z,1.20
2023-02-22T00:39:00.336Z,1.24
2023-02-22T00:44:03.346Z,1.27
2023-02-22T00:49:06.860Z,1.26
2023-02-22T00:54:10.837Z,1.21
2023-02-22T00:59:13.796Z,1.15
2023-02-22T01:04:18.550Z,1.11
2023-02-22T01:09:22.520Z,1.07
2023-02-22T01:14:27.988Z,1.03
2023-02-22T01:19:32.430Z,0.98
2023-02-22T01:24:35.380Z,0.93
2023-02-22T01:29:39.560Z,0.89
2023-02-22T01:34:42.721Z,0.84
2023-02-22T01:39:45.938Z,0.81
2023-02-22T01:45:28.053Z,0.80
2023-02-22T01:50:35.302Z,0.75
2023-02-22T01:55:39.176Z,0.68
2023-02-22T02:00:44.877Z,0.65
2023-02-22T02:05:50.216Z,0.62
2023-02-22T02:10:55.169Z,0.59
2023-02-22T02:15:58.280Z,0.57
2023-02-22T02:21:29.038Z,0.57
2023-02-22T02:26:53.784Z,0.55
2023-02-22T02:32:18.598Z,0.51
2023-02-22T02:37:40.109Z,0.44
2023-02-22T02:42:51.409Z,0.38
2023-02-22T02:47:59.023Z,0.32
2023-02-22T02:53:08.277Z,0.28
2023-02-22T02:58:18.288Z,0.23
2023-02-22T03:03:23.818Z,0.23
2023-02-22T03:08:39.946Z,0.23
2023-02-22T03:14:37.308Z,0.22
2023-02-22T03:19:43.185Z,0.18
2023-02-22T03:24:53.974Z,0.18
2023-02-22T03:30:02.406Z,0.20
2023-02-22T03:35:12.176Z,0.19
2023-02-22T03:40:36.707Z,0.17
2023-02-22T03:45:43.667Z,0.15
2023-02-22T03:50:47.630Z,0.12
2023-02-22T03:55:55.743Z,0.10
2023-02-22T04:00:59.284Z,0.06
2023-02-22T04:12:38.316Z,-0.01
2023-02-22T04:17:41.885Z,-0.04
2023-02-22T04:22:44.885Z,-0.07
2023-02-22T04:27:48.101Z,-0.10
2023-02-22T04:32:51.212Z,-0.11
2023-02-22T04:37:54.208Z,-0.12
2023-02-22T04:42:57.319Z,-0.13
2023-02-22T04:48:00.523Z,-0.13
2023-02-22T04:53:03.845Z,-0.12
2023-02-22T04:58:09.374Z,-0.11
2023-02-22T05:03:12.628Z,-0.12
2023-02-22T05:08:15.725Z,-0.11
2023-02-22T05:13:18.941Z,-0.14
2023-02-22T05:18:21.944Z,-0.16
2023-02-22T05:23:24.947Z,-0.20
2023-02-22T05:28:28.058Z,-0.23
2023-02-22T05:33:31.063Z,-0.22
2023-02-22T05:38:34.873Z,-0.24
2023-02-22T05:43:38.908Z,-0.22
2023-02-22T05:48:41.827Z,-0.22
2023-02-22T05:53:44.830Z,-0.21
2023-02-22T05:58:48.044Z,-0.18
2023-02-22T06:03:52.048Z,-0.13
2023-02-22T06:08:54.979Z,-0.12
2023-02-22T06:13:58.083Z,-0.12
2023-02-22T06:19:01.089Z,-0.09
2023-02-22T06:24:04.717Z,-0.05
2023-02-22T06:29:08.946Z,-0.04
2023-02-22T06:34:12.052Z,-0.02
2023-02-22T06:39:16.808Z,0.03
2023-02-22T06:44:19.804Z,0.08
2023-02-22T06:49:23.021Z,0.12
2023-02-22T06:54:27.365Z,0.17
2023-02-22T06:59:30.433Z,0.24
2023-02-22T07:04:33.473Z,0.31
2023-02-22T07:09:36.582Z,0.37
2023-02-22T07:14:40.200Z,0.45
2023-02-22T07:19:43.218Z,0.52
2023-02-22T07:24:48.059Z,0.55
2023-02-22T07:29:50.963Z,0.57
2023-02-22T07:34:54.076Z,0.60
2023-02-22T07:39:56.978Z,0.64
2023-02-22T07:45:00.105Z,0.68
2023-02-22T07:50:03.195Z,0.73
2023-02-22T07:55:07.302Z,0.78
2023-02-22T08:00:11.595Z,0.83
2023-02-22T08:05:15.258Z,0.87
2023-02-22T08:10:22.492Z,0.90
2023-02-22T08:15:29.397Z,0.91
2023-02-22T08:20:32.293Z,0.94
2023-02-22T08:25:36.160Z,1.02
2023-02-22T08:30:40.774Z,1.09
2023-02-22T08:35:43.970Z,1.11
2023-02-22T08:40:48.418Z,1.16
2023-02-22T08:45:52.207Z,1.20
2023-02-22T08:50:55.617Z,1.24
2023-02-22T08:55:58.557Z,1.34
2023-02-22T09:01:01.769Z,1.42
2023-02-22T09:06:06.625Z,1.54
2023-02-22T09:11:09.719Z,1.66
2023-02-22T09:16:12.966Z,1.78
2023-02-22T09:21:16.267Z,1.89
2023-02-22T09:26:19.463Z,1.99
2023-02-22T09:31:24.627Z,2.08
2023-02-22T09:36:27.721Z,2.02
2023-02-22T09:41:40.054Z,1.97
2023-02-22T09:46:46.110Z,1.92
2023-02-22T09:52:01.321Z,1.84
2023-02-22T09:57:13.790Z,1.81
2023-02-22T10:02:35.288Z,1.76
2023-02-22T10:07:59.600Z,1.67
2023-02-22T10:13:31.225Z,1.73
2023-02-22T10:19:08.211Z,1.87
2023-02-22T10:24:48.881Z,1.92
2023-02-22T10:30:05.599Z,1.91
2023-02-22T10:35:41.443Z,2.00
2023-02-22T10:40:50.927Z,1.96
2023-02-22T10:45:58.043Z,1.89
2023-02-22T10:51:06.343Z,1.84
2023-02-22T10:56:20.773Z,1.77
2023-02-22T11:01:32.731Z,1.73
2023-02-22T11:06:36.073Z,1.82
2023-02-22T11:11:46.086Z,1.89
2023-02-22T11:16:53.736Z,1.95
2023-02-22T11:22:08.229Z,1.96
2023-02-22T11:27:40.834Z,1.94
2023-02-22T11:32:50.661Z,1.95
2023-02-22T11:37:54.117Z,1.95
2023-02-22T11:43:08.534Z,1.97
2023-02-22T11:48:21.145Z,1.92
2023-02-22T11:53:32.234Z,1.86
2023-02-22T11:58:58.154Z,1.87
2023-02-22T12:04:07.275Z,1.88
2023-02-22T12:09:46.972Z,1.87
2023-02-22T12:15:14.149Z,1.87
2023-02-22T12:20:40.607Z,1.90
2023-02-22T12:26:09.171Z,1.98
2023-02-22T12:31:25.451Z,2.00
2023-02-22T12:36:39.594Z,2.03
2023-02-22T12:41:45.846Z,2.05
2023-02-22T12:46:55.131Z,2.07
2023-02-22T12:52:21.364Z,2.16
2023-02-22T12:58:02.287Z,2.31
2023-02-22T13:03:24.752Z,2.42
2023-02-22T13:08:51.813Z,2.51
2023-02-22T13:14:13.879Z,2.65
2023-02-22T13:19:49.956Z,2.80
2023-02-22T13:25:11.991Z,2.93
2023-02-22T13:30:21.666Z,3.02
2023-02-22T13:35:35.729Z,3.04
2023-02-22T13:41:03.521Z,3.00
2023-02-22T13:46:27.656Z,2.88
2023-02-22T13:51:47.516Z,2.71
2023-02-22T13:56:52.603Z,2.55
2023-02-22T14:01:56.514Z,2.41
2023-02-22T14:07:18.455Z,2.28
2023-02-22T14:12:30.813Z,2.11
2023-02-22T14:17:34.176Z,1.95
2023-02-22T14:22:37.215Z,1.85
2023-02-22T14:27:41.635Z,1.75
2023-02-22T14:32:44.846Z,1.69
2023-02-22T14:37:58.098Z,1.67
2023-02-22T14:43:06.640Z,1.69
2023-02-22T14:48:25.189Z,1.73
2023-02-22T14:53:40.556Z,1.76
2023-02-22T14:58:52.278Z,1.75
2023-02-22T15:04:07.139Z,1.73
2023-02-22T15:09:27.705Z,1.71
2023-02-22T15:14:38.049Z,1.70
2023-02-22T15:19:42.391Z,1.67
2023-02-22T15:24:58.959Z,1.62
2023-02-22T15:30:23.727Z,1.55
2023-02-22T15:35:30.268Z,1.44
2023-02-22T15:40:34.922Z,1.37
2023-02-22T15:45:43.309Z,1.32
2023-02-22T15:51:04.691Z,1.28
2023-02-22T15:56:30.063Z,1.25
2023-02-22T16:01:42.681Z,1.21
2023-02-22T16:06:47.705Z,1.16
2023-02-22T16:11:51.007Z,1.09
2023-02-22T16:17:15.960Z,1.04
2023-02-22T16:22:35.255Z,0.98
2023-02-22T16:27:47.656Z,0.97
2023-02-22T16:32:52.012Z,0.96
2023-02-22T16:37:58.479Z,0.94
2023-02-22T16:43:24.784Z,0.89
2023-02-22T16:48:33.050Z,0.83
2023-02-22T16:53:37.188Z,0.79
2023-02-22T16:58:41.612Z,0.78
2023-02-22T17:03:45.045Z,0.77
2023-02-22T17:08:48.934Z,0.73
2023-02-22T17:13:51.978Z,0.69
2023-02-22T17:18:54.890Z,0.70
2023-02-22T17:23:57.890Z,0.70
2023-02-22T17:29:01.001Z,0.70
2023-02-22T17:34:05.476Z,0.68
2023-02-22T17:39:10.873Z,0.65
2023-02-22T17:44:14.005Z,0.61
2023-02-22T17:49:17.016Z,0.58
2023-02-22T17:54:20.120Z,0.54
2023-02-22T17:59:23.228Z,0.51
2023-02-22T18:04:26.448Z,0.47
2023-02-22T18:09:29.888Z,0.44
2023-02-22T18:14:34.325Z,0.41
2023-02-22T18:19:37.402Z,0.37
2023-02-22T18:24:40.630Z,0.35
2023-02-22T18:29:43.826Z,0.33
2023-02-22T18:34:47.147Z,0.31
2023-02-22T18:39:50.283Z,0.29
2023-02-22T18:44:54.796Z,0.28
2023-02-22T18:49:57.803Z,0.27
2023-02-22T18:55:01.329Z,0.28
2023-02-22T19:00:07.729Z,0.28
2023-02-22T19:05:12.573Z,0.25
2023-02-22T19:10:15.765Z,0.21
2023-02-22T19:15:18.998Z,0.19
2023-02-22T19:20:22.092Z,0.17
2023-02-22T19:25:25.607Z,0.14
2023-02-22T19:30:28.813Z,0.09
2023-02-22T19:35:32.025Z,0.05
2023-02-22T19:40:34.931Z,0.05
2023-02-22T19:45:40.224Z,0.04
2023-02-22T19:50:49.441Z,-0.01
2023-02-22T19:55:52.447Z,-0.05
2023-02-22T20:00:55.347Z,-0.08
2023-02-22T20:05:58.598Z,-0.11
2023-02-22T20:11:01.566Z,-0.18
2023-02-22T20:16:05.241Z,-0.24
2023-02-22T20:21:10.214Z,-0.30
2023-02-22T20:26:24.947Z,-0.34
2023-02-22T20:31:29.739Z,-0.38
2023-02-22T20:36:37.098Z,-0.41
2023-02-22T20:41:42.647Z,-0.44
2023-02-22T20:46:46.870Z,-0.48
2023-02-22T20:51:49.890Z,-0.53
2023-02-22T20:56:53.211Z,-0.55
2023-02-22T21:01:56.418Z,-0.57
2023-02-22T21:07:03.488Z,-0.61
2023-02-22T21:12:13.434Z,-0.65
2023-02-22T21:17:21.823Z,-0.73
2023-02-22T21:22:25.468Z,-0.81
2023-02-22T21:27:28.552Z,-0.87
2023-02-22T21:32:31.696Z,-0.93
2023-02-22T21:37:34.767Z,-0.99
2023-02-22T21:42:38.194Z,-1.05
2023-02-22T21:47:41.600Z,-1.10
2023-02-22T21:52:47.154Z,-1.14
2023-02-22T21:57:50.397Z,-1.14
2023-02-22T22:02:53.423Z,-1.14
2023-02-22T22:07:56.599Z,-1.16
2023-02-22T22:13:00.246Z,-1.22
2023-02-22T22:18:06.773Z,-1.27
2023-02-22T22:23:09.821Z,-1.29
2023-02-22T22:28:12.721Z,-1.33
2023-02-22T22:33:15.817Z,-1.35
2023-02-22T22:38:20.879Z,-1.35
2023-02-22T22:43:23.775Z,-1.33
2023-02-22T22:48:28.215Z,-1.34
2023-02-22T22:53:35.221Z,-1.38
2023-02-22T22:58:38.224Z,-1.42
2023-02-22T23:03:43.730Z,-1.46
2023-02-22T23:08:46.924Z,-1.50
2023-02-22T23:13:50.309Z,-1.57
2023-02-22T23:18:53.530Z,-1.64
2023-02-22T23:23:58.743Z,-1.72
2023-02-22T23:29:02.896Z,-1.81
2023-02-22T23:34:11.302Z,-1.86
2023-02-22T23:39:17.005Z,-1.93
2023-02-22T23:44:21.663Z,-2.01
2023-02-22T23:49:36.078Z,-2.06
2023-02-22T23:54:44.122Z,-2.11
2023-02-22T23:59:50.738Z,-2.19
